Time;durP1;ratioP1;P1;durP2;ratioP2;P2;SDS_P1;SDS_P2;PMS_P1;PMS_P2;Temp;Humidity;BMP_temperature;BMP_pressure;BME280_temperature;BME280_humidity;BME280_pressure;Samples;Min_cycle;Max_cycle;Signal;HPM_P1;HPM_P2
2021/11/14 00:01:40;;;;;;;31.77;15.23;;;;;;;2.08;100.00;101332.63;1771714;80;21085;-69
2021/11/14 00:04:09;;;;;;;27.07;14.53;;;;;;;2.04;100.00;101333.76;1773835;81;21033;-69
2021/11/14 00:06:38;;;;;;;30.57;16.07;;;;;;;2.01;100.00;101330.77;1774299;81;21518;-69
2021/11/14 00:09:05;;;;;;;29.80;16.20;;;;;;;1.99;100.00;101337.15;1745804;81;21505;-70
2021/11/14 00:11:34;;;;;;;27.63;15.13;;;;;;;1.95;100.00;101330.23;1774267;81;21044;-69
2021/11/14 00:14:01;;;;;;;28.40;15.97;;;;;;;1.93;100.00;101330.80;1745791;81;21088;-69
2021/11/14 00:16:29;;;;;;;27.00;15.10;;;;;;;1.91;100.00;101329.55;1745837;81;21076;-70
2021/11/14 00:18:56;;;;;;;29.87;15.33;;;;;;;1.89;100.00;101332.77;1774319;81;21061;-69
2021/11/14 00:21:25;;;;;;;28.17;15.57;;;;;;;1.88;100.00;101329.25;1745808;81;21013;-69
2021/11/14 00:23:52;;;;;;;29.07;16.57;;;;;;;1.86;100.00;101326.27;1774147;80;22265;-70
2021/11/14 00:26:19;;;;;;;28.73;15.20;;;;;;;1.82;100.00;101320.72;1745842;81;21026;-69
2021/11/14 00:28:46;;;;;;;29.17;15.77;;;;;;;1.80;100.00;101317.27;1746026;81;21522;-70
2021/11/14 00:31:19;;;;;;;29.27;15.07;;;;;;;1.77;100.00;101322.31;1773912;81;21490;-70
2021/11/14 00:33:47;;;;;;;28.13;14.97;;;;;;;1.73;100.00;101323.89;1774073;81;21021;-70
2021/11/14 00:36:17;;;;;;;29.17;15.13;;;;;;;1.68;100.00;101321.01;1745800;81;21009;-69
2021/11/14 00:38:44;;;;;;;28.30;15.37;;;;;;;1.64;100.00;101318.09;1774129;81;21029;-70
2021/11/14 00:41:11;;;;;;;26.57;14.77;;;;;;;1.61;100.00;101318.28;1774319;81;20985;-70
2021/11/14 00:43:42;;;;;;;27.63;15.77;;;;;;;1.58;100.00;101321.58;1774319;81;21536;-70
2021/11/14 00:46:10;;;;;;;32.87;15.97;;;;;;;1.53;100.00;101312.48;1780617;79;21005;-69
2021/11/14 00:48:41;;;;;;;28.00;14.50;;;;;;;1.49;100.00;101317.12;1809200;79;21048;-70
2021/11/14 00:51:11;;;;;;;27.13;14.57;;;;;;;1.47;100.00;101311.02;1809308;79;21009;-70
2021/11/14 00:53:38;;;;;;;26.90;14.40;;;;;;;1.45;100.00;101316.91;1780317;79;21047;-68
2021/11/14 00:56:05;;;;;;;28.83;13.67;;;;;;;1.42;100.00;101315.72;1780315;79;21063;-69
2021/11/14 00:58:32;;;;;;;24.60;13.43;;;;;;;1.39;100.00;101317.21;1809472;79;21068;-69
2021/11/14 01:00:59;;;;;;;25.47;13.27;;;;;;;1.38;100.00;101317.28;1823126;78;20986;-69
2021/11/14 01:03:27;;;;;;;25.90;13.70;;;;;;;1.37;100.00;101319.58;1803995;79;21062;-70
2021/11/14 01:05:56;;;;;;;27.80;14.07;;;;;;;1.36;100.00;101322.69;1799039;79;21479;-70
2021/11/14 01:08:23;;;;;;;28.13;13.67;;;;;;;1.35;100.00;101332.09;1798648;79;20998;-70
2021/11/14 01:10:51;;;;;;;24.67;13.73;;;;;;;1.34;100.00;101327.25;1824459;79;21053;-70
2021/11/14 01:13:20;;;;;;;27.50;13.43;;;;;;;1.31;100.00;101325.62;1799075;79;21065;-71
2021/11/14 01:15:47;;;;;;;24.37;13.37;;;;;;;1.30;100.00;101324.36;1824125;79;21010;-70
2021/11/14 01:18:15;;;;;;;25.37;12.80;;;;;;;1.28;100.00;101326.25;1824146;79;21060;-70
2021/11/14 01:20:44;;;;;;;26.53;13.40;;;;;;;1.24;100.00;101320.22;1799215;79;21026;-70
2021/11/14 01:23:14;;;;;;;29.83;15.23;;;;;;;1.18;100.00;101323.66;1824215;78;21041;-69
2021/11/14 01:25:41;;;;;;;24.10;13.27;;;;;;;1.11;100.00;101326.62;1824381;79;20975;-69
2021/11/14 01:28:10;;;;;;;29.67;14.07;;;;;;;1.08;100.00;101327.26;1824240;79;21050;-69
2021/11/14 01:30:40;;;;;;;29.77;14.97;;;;;;;1.09;100.00;101336.50;1798885;79;21073;-70
2021/11/14 01:33:08;;;;;;;29.20;14.60;;;;;;;1.11;100.00;101337.28;1824200;79;21104;-70
2021/11/14 01:35:36;;;;;;;29.67;14.93;;;;;;;1.13;100.00;101336.77;1798958;79;21487;-70
2021/11/14 01:38:04;;;;;;;31.43;15.23;;;;;;;1.15;100.00;101340.66;1824196;79;21487;-68
2021/11/14 01:40:38;;;;;;;30.47;14.63;;;;;;;1.16;100.00;101341.53;1799155;79;21018;-69
2021/11/14 01:43:06;;;;;;;33.63;14.87;;;;;;;1.18;100.00;101337.84;1753385;81;21031;-69
2021/11/14 01:45:35;;;;;;;31.53;15.40;;;;;;;1.21;100.00;101341.69;1740530;81;21069;-70
2021/11/14 01:48:03;;;;;;;29.50;14.27;;;;;;;1.22;100.00;101343.88;1749583;81;21426;-70
2021/11/14 01:50:30;;;;;;;30.47;14.33;;;;;;;1.23;100.00;101342.94;1770162;81;21049;-69
2021/11/14 01:52:58;;;;;;;28.33;14.77;;;;;;;1.24;100.00;101345.98;1748344;82;21050;-69
2021/11/14 01:55:28;;;;;;;29.33;14.83;;;;;;;1.23;100.00;101336.28;1769859;81;21038;-69
2021/11/14 01:57:55;;;;;;;33.13;15.60;;;;;;;1.24;100.00;101340.65;1748534;82;21038;-70
2021/11/14 02:00:35;;;;;;;31.63;16.13;;;;;;;1.23;100.00;101341.13;1773276;80;21192;-69
2021/11/14 02:03:02;;;;;;;31.67;15.57;;;;;;;1.25;100.00;101347.72;1760734;81;21087;-70
2021/11/14 02:05:32;;;;;;;31.03;16.00;;;;;;;1.24;100.00;101345.98;1760611;81;21036;-69
2021/11/14 02:08:01;;;;;;;29.53;16.00;;;;;;;1.26;100.00;101350.79;1760597;81;21090;-69
2021/11/14 02:10:29;;;;;;;30.03;15.77;;;;;;;1.24;100.00;101349.53;1760698;81;21048;-69
2021/11/14 02:12:56;;;;;;;31.83;16.93;;;;;;;1.23;100.00;101355.78;1760792;81;21024;-69
2021/11/14 02:15:25;;;;;;;38.80;20.77;;;;;;;1.23;100.00;101354.94;1735897;81;21025;-70
2021/11/14 02:17:52;;;;;;;35.30;20.40;;;;;;;1.20;100.00;101357.27;1760760;81;21080;-69
2021/11/14 02:20:20;;;;;;;35.10;19.83;;;;;;;1.20;100.00;101359.08;1735655;81;21533;-69
2021/11/14 02:22:47;;;;;;;34.17;18.37;;;;;;;1.17;100.00;101348.57;1760694;81;21556;-70
2021/11/14 02:25:16;;;;;;;31.53;17.83;;;;;;;1.14;100.00;101351.79;1760645;81;21068;-70
2021/11/14 02:27:44;;;;;;;30.93;16.87;;;;;;;1.11;100.00;101358.59;1760644;81;21087;-69
2021/11/14 02:30:13;;;;;;;29.47;17.17;;;;;;;1.08;100.00;101360.11;1760530;81;21025;-69
2021/11/14 02:32:41;;;;;;;30.77;16.57;;;;;;;1.05;100.00;101360.73;1760902;81;21072;-70
2021/11/14 02:35:09;;;;;;;32.87;17.37;;;;;;;1.03;100.00;101370.13;1760659;81;21107;-69
2021/11/14 02:37:36;;;;;;;33.53;17.57;;;;;;;1.00;100.00;101352.11;1761001;81;21078;-69
2021/11/14 02:40:06;;;;;;;31.33;17.20;;;;;;;1.00;100.00;101356.11;1760776;81;20989;-70
2021/11/14 02:42:33;;;;;;;30.50;17.13;;;;;;;0.98;100.00;101354.84;1735789;81;21134;-69
2021/11/14 02:45:00;;;;;;;31.23;16.97;;;;;;;0.95;100.00;101352.33;1714399;84;21093;-69
2021/11/14 02:47:28;;;;;;;31.30;15.83;;;;;;;0.92;100.00;101352.03;1734827;82;21028;-70
2021/11/14 02:49:55;;;;;;;31.00;17.40;;;;;;;0.90;100.00;101354.36;1734831;83;21113;-69
2021/11/14 02:52:23;;;;;;;36.10;18.03;;;;;;;0.86;100.00;101352.80;1710519;83;21020;-69
2021/11/14 02:54:52;;;;;;;31.00;16.97;;;;;;;0.84;100.00;101349.35;1735035;83;21026;-69
2021/11/14 02:57:20;;;;;;;30.77;17.03;;;;;;;0.83;100.00;101346.28;1734898;83;21072;-70
2021/11/14 02:59:48;;;;;;;31.03;17.13;;;;;;;0.82;100.00;101344.58;1735118;81;21064;-69
2021/11/14 03:02:16;;;;;;;31.47;17.80;;;;;;;0.80;100.00;101346.42;1765067;81;21081;-69
2021/11/14 03:04:43;;;;;;;30.40;17.67;;;;;;;0.80;100.00;101349.09;1733885;81;21092;-69
2021/11/14 03:07:10;;;;;;;33.23;17.50;;;;;;;0.78;100.00;101358.52;1759335;81;21011;-68
2021/11/14 03:09:37;;;;;;;35.23;18.03;;;;;;;0.75;100.00;101355.52;1759564;81;20990;-69
2021/11/14 03:12:06;;;;;;;31.20;17.13;;;;;;;0.75;100.00;101347.53;1733095;81;21538;-69
2021/11/14 03:14:33;;;;;;;32.77;17.47;;;;;;;0.75;100.00;101349.34;1759436;81;20963;-70
2021/11/14 03:17:00;;;;;;;32.80;17.87;;;;;;;0.75;100.00;101355.52;1745864;80;20956;-69
2021/11/14 03:19:28;;;;;;;34.97;18.50;;;;;;;0.77;100.00;101358.59;1751370;80;21121;-70
2021/11/14 03:21:56;;;;;;;34.37;18.10;;;;;;;0.76;100.00;101359.03;1800956;80;21551;-69
2021/11/14 03:24:25;;;;;;;33.40;18.23;;;;;;;0.75;100.00;101355.52;1801155;80;21021;-69
2021/11/14 03:26:53;;;;;;;37.83;19.03;;;;;;;0.72;100.00;101354.33;1800885;80;21034;-69
2021/11/14 03:29:20;;;;;;;33.20;18.37;;;;;;;0.72;100.00;101355.66;1776360;80;21004;-68
2021/11/14 03:31:48;;;;;;;37.60;19.13;;;;;;;0.71;100.00;101355.28;1776169;80;21004;-70
2021/11/14 03:34:15;;;;;;;32.97;17.90;;;;;;;0.69;100.00;101350.95;1801155;80;21021;-69
2021/11/14 03:36:43;;;;;;;36.43;18.97;;;;;;;0.68;100.00;101348.77;1800949;80;20998;-70
2021/11/14 03:39:09;;;;;;;36.60;19.40;;;;;;;0.67;100.00;101348.84;1801139;80;21006;-70
2021/11/14 03:41:40;;;;;;;33.37;18.73;;;;;;;0.64;100.00;101347.20;1776246;80;20982;-69
2021/11/14 03:44:10;;;;;;;35.47;18.70;;;;;;;0.64;100.00;101346.32;1800757;80;21065;-69
2021/11/14 03:46:38;;;;;;;36.13;19.10;;;;;;;0.61;100.00;101352.67;1790085;80;20996;-69
2021/11/14 03:49:05;;;;;;;30.90;17.77;;;;;;;0.59;100.00;101351.89;1746119;81;21545;-70
2021/11/14 03:51:32;;;;;;;32.57;18.43;;;;;;;0.58;100.00;101350.62;1771398;81;21060;-69
2021/11/14 03:53:59;;;;;;;33.87;19.53;;;;;;;0.58;100.00;101356.81;1745862;81;21021;-69
2021/11/14 03:56:29;;;;;;;32.93;18.67;;;;;;;0.57;100.00;101359.09;1745919;81;21064;-69
2021/11/14 03:58:57;;;;;;;33.50;18.90;;;;;;;0.56;100.00;101360.02;1771822;81;21008;-69
2021/11/14 04:01:26;;;;;;;40.63;20.17;;;;;;;0.55;100.00;101350.33;1766654;79;21037;-69
2021/11/14 04:03:55;;;;;;;33.67;19.03;;;;;;;0.54;100.00;101353.91;1776364;79;21540;-69
2021/11/14 04:06:22;;;;;;;34.10;18.37;;;;;;;0.53;100.00;101358.38;1806090;79;21068;-69
2021/11/14 04:08:53;;;;;;;32.33;18.43;;;;;;;0.53;100.00;101357.49;1750059;79;21055;-69
2021/11/14 04:11:20;;;;;;;33.40;18.73;;;;;;;0.50;100.00;101365.17;1806347;79;21001;-69
2021/11/14 04:13:47;;;;;;;34.00;18.63;;;;;;;0.49;100.00;101366.58;1775314;79;21453;-69
2021/11/14 04:16:14;;;;;;;32.30;18.70;;;;;;;0.46;100.00;101358.73;1806418;79;21529;-70
2021/11/14 04:18:43;;;;;;;34.27;17.83;;;;;;;0.44;100.00;101366.78;1775301;79;21099;-69
2021/11/14 04:21:10;;;;;;;30.13;17.03;;;;;;;0.44;100.00;101368.11;1775488;79;21462;-70
2021/11/14 04:23:39;;;;;;;35.13;19.30;;;;;;;0.42;100.00;101371.32;1806421;79;21528;-71
2021/11/14 04:26:07;;;;;;;33.47;19.07;;;;;;;0.40;100.00;101367.02;1806310;79;21575;-71
2021/11/14 04:28:34;;;;;;;35.27;18.87;;;;;;;0.38;100.00;101367.94;1775269;79;21008;-70
2021/11/14 04:31:01;;;;;;;33.07;18.93;;;;;;;0.36;100.00;101377.80;1806290;79;20981;-70
2021/11/14 04:33:28;;;;;;;35.20;18.30;;;;;;;0.35;100.00;101380.53;1775581;79;21508;-68
2021/11/14 04:35:57;;;;;;;35.00;18.20;;;;;;;0.33;100.00;101376.61;1775202;79;21095;-70
2021/11/14 04:38:24;;;;;;;32.60;18.03;;;;;;;0.34;100.00;101375.69;1806784;79;21048;-70
2021/11/14 04:40:51;;;;;;;32.80;18.60;;;;;;;0.37;100.00;101380.88;1806381;79;21020;-68
2021/11/14 04:43:19;;;;;;;35.30;19.00;;;;;;;0.37;100.00;101380.88;1806474;79;21013;-69
2021/11/14 04:45:48;;;;;;;34.73;18.50;;;;;;;0.37;100.00;101383.53;1775210;79;21020;-69
2021/11/14 04:48:15;;;;;;;35.27;19.07;;;;;;;0.37;100.00;101387.97;1749533;79;21041;-69
2021/11/14 04:50:42;;;;;;;35.53;18.40;;;;;;;0.40;100.00;101393.16;1826132;77;21010;-70
2021/11/14 04:53:09;;;;;;;36.00;18.67;;;;;;;0.41;100.00;101396.22;1854846;77;21495;-69
2021/11/14 04:55:38;;;;;;;33.37;18.40;;;;;;;0.40;100.00;101396.30;1826356;77;20986;-70
2021/11/14 04:58:05;;;;;;;36.97;19.37;;;;;;;0.40;100.00;101406.94;1826593;77;21589;-69
2021/11/14 05:00:39;;;;;;;33.30;18.60;;;;;;;0.38;100.00;101397.69;1817558;78;21057;-69
2021/11/14 05:03:06;;;;;;;35.60;18.17;;;;;;;0.40;100.00;101408.27;1717063;82;21118;-69
2021/11/14 05:05:34;;;;;;;36.83;18.67;;;;;;;0.41;100.00;101405.54;1775812;81;21625;-69
2021/11/14 05:08:06;;;;;;;32.63;17.87;;;;;;;0.44;100.00;101411.17;1775959;81;21093;-69
2021/11/14 05:10:34;;;;;;;32.37;19.27;;;;;;;0.46;100.00;101414.61;1776210;80;21491;-68
2021/11/14 05:13:01;;;;;;;37.73;19.13;;;;;;;0.47;100.00;101419.87;1745856;81;21011;-69
2021/11/14 05:15:30;;;;;;;37.50;18.50;;;;;;;0.48;100.00;101419.39;1775964;81;21054;-69
2021/11/14 05:17:57;;;;;;;31.63;18.30;;;;;;;0.51;100.00;101427.24;1749921;81;20975;-71
2021/11/14 05:20:25;;;;;;;36.33;19.83;;;;;;;0.51;100.00;101425.47;1742704;82;21058;-68
2021/11/14 05:22:52;;;;;;;34.30;19.80;;;;;;;0.53;100.00;101434.23;1714291;82;21037;-69
2021/11/14 05:25:20;;;;;;;34.53;17.87;;;;;;;0.55;100.00;101439.49;1718208;82;21052;-69
2021/11/14 05:27:48;;;;;;;33.60;17.47;;;;;;;0.58;100.00;101443.80;1739887;82;20967;-69
2021/11/14 05:30:14;;;;;;;34.87;18.50;;;;;;;0.68;100.00;101442.43;1727615;82;21501;-69
2021/11/14 05:32:42;;;;;;;35.10;18.60;;;;;;;0.83;100.00;101448.33;1730834;82;20999;-69
2021/11/14 05:35:11;;;;;;;33.10;17.77;;;;;;;0.97;100.00;101449.00;1711466;83;21042;-68
2021/11/14 05:37:38;;;;;;;33.67;19.27;;;;;;;1.06;100.00;101445.02;1691096;83;21037;-70
2021/11/14 05:40:10;;;;;;;31.53;17.97;;;;;;;1.10;100.00;101446.14;1719682;83;21077;-69
2021/11/14 05:42:37;;;;;;;35.90;19.47;;;;;;;1.11;100.00;101452.32;1720542;83;21070;-69
2021/11/14 05:45:05;;;;;;;34.90;19.47;;;;;;;1.11;100.00;101454.98;1720259;83;21106;-69
2021/11/14 05:47:34;;;;;;;36.40;19.13;;;;;;;1.09;100.00;101455.05;1733879;82;21539;-71
2021/11/14 05:50:03;;;;;;;37.40;20.47;;;;;;;1.08;100.00;101453.80;1738792;82;21097;-69
2021/11/14 05:52:30;;;;;;;38.37;20.43;;;;;;;1.07;100.00;101453.42;1738785;82;21637;-70
2021/11/14 05:54:57;;;;;;;33.80;18.87;;;;;;;1.05;100.00;101449.50;1738754;82;21062;-71
2021/11/14 05:57:26;;;;;;;32.67;18.57;;;;;;;1.07;100.00;101455.60;1738601;82;21665;-70
2021/11/14 06:00:05;;;;;;;35.93;19.97;;;;;;;1.10;100.00;101455.94;1753466;80;21032;-71
2021/11/14 06:07:35;;;;;;;37.40;18.87;;;;;;;1.23;100.00;101454.37;1717013;83;21590;-69
2021/11/14 06:10:02;;;;;;;36.13;18.13;;;;;;;1.27;100.00;101454.61;1717190;83;21149;-70
2021/11/14 06:12:30;;;;;;;30.93;17.57;;;;;;;1.32;100.00;101455.25;1717177;83;21062;-71
2021/11/14 06:14:58;;;;;;;33.90;17.83;;;;;;;1.39;100.00;101457.14;1670298;83;21078;-70
2021/11/14 06:17:25;;;;;;;31.10;17.97;;;;;;;1.45;100.00;101452.84;1717500;83;21097;-71
2021/11/14 06:19:54;;;;;;;35.67;18.43;;;;;;;1.52;100.00;101453.38;1717255;83;21082;-69
2021/11/14 06:22:22;;;;;;;33.50;18.20;;;;;;;1.59;100.00;101443.27;1716968;83;21043;-69
2021/11/14 06:24:50;;;;;;;32.33;18.30;;;;;;;1.66;100.00;101443.34;1717171;83;21081;-70
2021/11/14 06:27:17;;;;;;;35.20;18.50;;;;;;;1.74;100.00;101445.62;1717137;83;21062;-70
2021/11/14 06:29:44;;;;;;;31.13;17.67;;;;;;;1.81;100.00;101443.03;1717172;83;21149;-70
2021/11/14 06:32:11;;;;;;;31.60;17.07;;;;;;;1.89;100.00;101442.14;1717238;83;21555;-70
2021/11/14 06:34:38;;;;;;;32.23;18.07;;;;;;;2.00;100.00;101442.90;1717321;83;21102;-69
2021/11/14 06:37:06;;;;;;;34.00;18.37;;;;;;;2.12;100.00;101446.73;1717004;83;21071;-69
2021/11/14 06:39:33;;;;;;;33.30;17.17;;;;;;;2.22;100.00;101450.16;1717100;83;21448;-69
2021/11/14 06:42:00;;;;;;;33.63;17.90;;;;;;;2.36;100.00;101453.90;1760324;80;21034;-69
2021/11/14 06:44:27;;;;;;;31.67;17.73;;;;;;;2.51;100.00;101458.38;1769312;81;21142;-69
2021/11/14 06:46:55;;;;;;;29.53;15.60;;;;;;;2.68;100.00;101444.59;1754161;81;21032;-69
2021/11/14 06:49:23;;;;;;;33.90;16.70;;;;;;;2.84;100.00;101444.95;1714477;82;21048;-70
2021/11/14 06:51:50;;;;;;;27.80;15.13;;;;;;;3.03;100.00;101440.77;1747200;81;21036;-69
2021/11/14 06:54:17;;;;;;;32.40;15.93;;;;;;;3.22;100.00;101446.38;1720145;82;21505;-69
2021/11/14 06:56:46;;;;;;;33.57;17.17;;;;;;;3.38;100.00;101439.66;1720063;82;21084;-70
2021/11/14 06:59:15;;;;;;;27.67;15.97;;;;;;;3.54;100.00;101428.45;1720010;82;21500;-69
2021/11/14 07:01:41;;;;;;;34.20;16.50;;;;;;;3.66;100.00;101432.19;1754689;80;21034;-69
2021/11/14 07:04:09;;;;;;;27.90;16.10;;;;;;;3.81;100.00;101425.06;1771013;80;21569;-70
2021/11/14 07:06:37;;;;;;;29.07;15.40;;;;;;;3.95;100.00;101422.39;1737944;81;21502;-69
2021/11/14 07:09:05;;;;;;;27.97;15.27;;;;;;;4.14;100.00;101418.11;1758834;82;21053;-69
2021/11/14 07:11:33;;;;;;;28.53;14.50;;;;;;;4.32;100.00;101422.78;1741305;81;21105;-69
2021/11/14 07:14:00;;;;;;;25.43;14.17;;;;;;;4.54;100.00;101416.91;1797166;80;21009;-70
2021/11/14 07:16:29;;;;;;;34.07;15.90;;;;;;;4.78;100.00;101423.00;1796873;80;21067;-70
2021/11/14 07:18:57;;;;;;;28.80;15.70;;;;;;;4.91;100.00;101413.18;1796509;80;20999;-69
2021/11/14 07:21:25;;;;;;;25.67;14.80;;;;;;;5.05;100.00;101410.94;1765521;81;21052;-70
2021/11/14 07:23:52;;;;;;;26.07;14.00;;;;;;;5.22;100.00;101401.74;1766927;80;21018;-71
2021/11/14 07:26:19;;;;;;;28.20;14.60;;;;;;;5.45;100.00;101397.99;1796731;80;22009;-65
2021/11/14 07:28:46;;;;;;;29.80;14.60;;;;;;;5.64;100.00;101397.59;1767858;80;21027;-70
2021/11/14 07:31:14;;;;;;;27.97;14.13;;;;;;;5.80;100.00;101391.53;1796996;80;21096;-68
2021/11/14 07:33:42;;;;;;;24.03;13.37;;;;;;;6.02;100.00;101389.59;1767990;80;22152;-69
2021/11/14 07:36:10;;;;;;;25.57;13.50;;;;;;;6.21;100.00;101389.12;1796565;80;21518;-70
2021/11/14 07:38:37;;;;;;;27.83;14.33;;;;;;;6.32;100.00;101387.03;1768156;80;21582;-67
2021/11/14 07:41:04;;;;;;;30.93;14.80;;;;;;;6.44;100.00;101384.77;1768048;80;21550;-68
2021/11/14 07:43:32;;;;;;;26.47;14.77;;;;;;;6.60;100.00;101387.69;1796918;80;21511;-68
2021/11/14 07:45:59;;;;;;;24.43;13.00;;;;;;;6.75;100.00;101377.16;1767254;80;21023;-67
2021/11/14 07:48:27;;;;;;;25.03;13.27;;;;;;;6.89;100.00;101377.48;1759843;80;21059;-69
2021/11/14 07:50:54;;;;;;;26.83;14.07;;;;;;;7.08;100.00;101370.22;1788203;79;21004;-68
2021/11/14 07:53:23;;;;;;;22.17;11.90;;;;;;;7.31;100.00;101370.31;1788179;80;21540;-68
2021/11/14 07:55:51;;;;;;;26.60;13.37;;;;;;;7.47;100.00;101366.83;1759530;80;20999;-69
2021/11/14 07:58:18;;;;;;;27.20;13.60;;;;;;;7.54;100.00;101360.00;1787990;80;21083;-70
2021/11/14 08:00:45;;;;;;;24.97;12.67;;;;;;;7.66;100.00;101359.51;1801547;77;21004;-70
2021/11/14 08:03:13;;;;;;;27.27;14.30;;;;;;;7.85;100.00;101348.66;1793983;79;21012;-70
2021/11/14 08:05:42;;;;;;;26.50;13.50;;;;;;;8.03;100.00;101349.02;1819748;79;21535;-69
2021/11/14 08:08:09;;;;;;;26.07;13.47;;;;;;;8.14;100.00;101349.89;1796719;79;21043;-70
2021/11/14 08:10:37;;;;;;;24.70;13.00;;;;;;;8.29;100.00;101349.13;1819289;79;21000;-69
2021/11/14 08:13:06;;;;;;;26.37;13.30;;;;;;;8.44;100.00;101346.20;1796069;79;21044;-69
2021/11/14 08:15:33;;;;;;;23.47;12.70;;;;;;;8.51;100.00;101338.81;1819136;79;21500;-69
2021/11/14 08:18:01;;;;;;;23.97;12.40;;;;;;;8.66;100.00;101340.77;1796381;79;21468;-69
2021/11/14 08:20:28;;;;;;;22.60;12.50;;;;;;;8.82;100.00;101337.64;1819243;79;21086;-69
2021/11/14 08:22:59;;;;;;;27.20;13.23;;;;;;;8.88;100.00;101339.81;1796072;79;21059;-69
2021/11/14 08:25:24;;;;;;;24.07;12.03;;;;;;;8.94;100.00;101343.83;1792566;79;21079;-70
2021/11/14 08:27:51;;;;;;;22.80;11.63;;;;;;;9.03;100.00;101336.34;1796000;79;20960;-70
2021/11/14 08:30:18;;;;;;;24.50;12.80;;;;;;;9.15;100.00;101326.33;1819063;79;21055;-69
2021/11/14 08:32:47;;;;;;;25.60;12.90;;;;;;;9.29;100.00;101316.56;1796260;79;21472;-70
2021/11/14 08:35:14;;;;;;;23.03;12.00;;;;;;;9.44;100.00;101317.61;1819248;79;21094;-69
2021/11/14 08:37:42;;;;;;;25.53;13.03;;;;;;;9.48;100.00;101322.59;1819023;79;21020;-69
2021/11/14 08:40:12;;;;;;;28.30;13.10;;;;;;;9.56;100.00;101318.37;1796777;79;21047;-68
2021/11/14 08:42:39;;;;;;;21.93;12.10;;;;;;;9.69;100.00;101314.97;1796250;79;21500;-69
2021/11/14 08:45:08;;;;;;;25.65;13.53;;;;;;;9.84;100.00;101319.51;1819316;79;21051;-70
2021/11/14 08:47:36;;;;;;;25.12;11.80;;;;;;;9.98;100.00;101321.00;1845053;77;21032;-69
2021/11/14 08:50:05;;;;;;;23.73;11.83;;;;;;;10.00;100.00;101317.16;1828757;77;21026;-69
2021/11/14 08:52:32;;;;;;;25.12;12.47;;;;;;;10.04;100.00;101315.06;1852549;77;21011;-69
2021/11/14 08:54:59;;;;;;;25.12;12.15;;;;;;;10.13;100.00;101314.23;1828928;77;21022;-69
2021/11/14 08:57:25;;;;;;;24.72;12.10;;;;;;;10.23;100.00;101307.02;1829015;77;20990;-69
2021/11/14 08:59:53;;;;;;;27.17;12.25;;;;;;;10.34;100.00;101306.56;1828122;77;21014;-69
2021/11/14 09:02:22;;;;;;;26.12;12.68;;;;;;;10.48;100.00;101302.61;1805337;78;21486;-69
2021/11/14 09:04:51;;;;;;;28.30;13.28;;;;;;;10.59;100.00;101294.39;1805281;78;21514;-69
2021/11/14 09:07:18;;;;;;;25.45;11.83;;;;;;;10.63;100.00;101288.54;1830466;78;21519;-69
2021/11/14 09:09:47;;;;;;;26.30;11.75;;;;;;;10.73;100.00;101280.92;1830610;78;21025;-70
2021/11/14 09:12:14;;;;;;;26.82;11.85;;;;;;;10.74;100.00;101283.48;1830420;78;21545;-69
2021/11/14 09:14:42;;;;;;;24.92;11.93;;;;;;;10.75;100.00;101271.69;1830771;78;21013;-69
2021/11/14 09:17:09;;;;;;;25.10;11.80;;;;;;;10.86;100.00;101271.19;1830590;78;21007;-69
2021/11/14 09:19:36;;;;;;;26.90;12.95;;;;;;;10.96;100.00;101274.25;1830508;78;21009;-70
2021/11/14 09:22:04;;;;;;;30.23;13.00;;;;;;;11.06;100.00;101273.38;1802760;78;21055;-68
2021/11/14 09:24:31;;;;;;;28.05;12.10;;;;;;;11.08;100.00;101263.25;1830500;78;21009;-69
2021/11/14 09:26:58;;;;;;;23.77;11.55;;;;;;;11.15;100.00;101267.94;1803043;78;21029;-70
2021/11/14 09:29:25;;;;;;;22.30;10.98;;;;;;;11.17;100.00;101264.61;1830304;78;21498;-69
2021/11/14 09:31:52;;;;;;;24.20;11.95;;;;;;;11.17;100.00;101265.96;1830334;78;21030;-70
2021/11/14 09:34:20;;;;;;;21.77;11.33;;;;;;;11.14;100.00;101258.13;1803396;78;21025;-68
2021/11/14 09:36:47;;;;;;;23.30;11.70;;;;;;;11.11;100.00;101257.56;1803143;78;21545;-69
2021/11/14 09:39:14;;;;;;;24.87;11.48;;;;;;;11.06;100.00;101260.69;1830480;78;21026;-68
2021/11/14 09:41:47;;;;;;;25.12;11.03;;;;;;;11.13;100.00;101260.97;1803323;78;21002;-69
2021/11/14 09:44:16;;;;;;;26.48;11.68;;;;;;;11.24;100.00;101259.44;1830578;78;21483;-69
2021/11/14 09:46:49;;;;;;;20.37;10.75;;;;;;;11.35;100.00;101256.59;1790467;80;21016;-70
2021/11/14 09:49:23;;;;;;;19.82;10.35;;;;;;;11.36;100.00;101254.22;1782506;80;21518;-69
2021/11/14 09:51:50;;;;;;;20.90;10.13;;;;;;;11.34;100.00;101249.95;1730544;83;21118;-69
2021/11/14 09:54:20;;;;;;;26.20;10.75;;;;;;;11.37;100.00;101245.10;1737097;81;21116;-69
2021/11/14 09:56:47;;;;;;;22.37;10.65;;;;;;;11.42;100.00;101237.03;1730730;83;21061;-69
2021/11/14 09:59:15;;;;;;;24.23;10.90;;;;;;;11.43;100.00;101238.75;1762559;81;21052;-68
2021/11/14 10:01:44;;;;;;;22.13;10.30;;;;;;;11.47;100.00;101235.58;1700043;81;22469;-71
2021/11/14 10:04:13;;;;;;;24.87;12.90;;;;;;;11.55;100.00;101232.99;1793852;80;21035;-69
2021/11/14 10:06:40;;;;;;;21.00;11.03;;;;;;;11.65;100.00;101228.03;1745062;81;21106;-69
2021/11/14 10:09:08;;;;;;;17.82;9.60;;;;;;;11.76;100.00;101225.99;1715681;81;21096;-69
2021/11/14 10:11:41;;;;;;;21.68;10.20;;;;;;;11.83;100.00;101223.55;1770407;81;21086;-69
2021/11/14 10:14:09;;;;;;;19.50;9.45;;;;;;;11.86;100.00;101221.86;1768147;81;21116;-71
2021/11/14 10:16:39;;;;;;;20.23;10.32;;;;;;;11.80;100.00;101222.48;1742127;80;20990;-69
2021/11/14 10:19:12;;;;;;;19.57;9.45;;;;;;;11.83;100.00;101222.67;1770550;80;21628;-70
2021/11/14 10:21:45;;;;;;;21.97;10.15;;;;;;;11.91;100.00;101225.52;1770446;81;21094;-69
2021/11/14 10:24:12;;;;;;;23.62;10.68;;;;;;;11.97;100.00;101220.87;1785092;80;21528;-69
2021/11/14 10:26:39;;;;;;;20.97;9.38;;;;;;;12.00;100.00;101213.77;1766075;81;21466;-70
2021/11/14 10:29:10;;;;;;;26.00;11.22;;;;;;;11.94;100.00;101212.52;1758991;81;21201;-70
2021/11/14 10:31:40;;;;;;;21.23;9.78;;;;;;;11.83;100.00;101226.73;1751238;81;21595;-70
2021/11/14 10:34:07;;;;;;;33.00;11.33;;;;;;;11.91;100.00;101215.52;1776400;80;20990;-70
2021/11/14 10:36:35;;;;;;;26.02;12.35;;;;;;;11.94;100.00;101211.16;1778601;80;20999;-68
2021/11/14 10:39:07;;;;;;;27.90;15.38;;;;;;;11.87;100.00;101213.25;1779610;80;21107;-70
2021/11/14 10:41:43;;;;;;;28.32;12.40;;;;;;;11.89;100.00;101211.24;1726249;83;21057;-71
2021/11/14 10:44:13;;;;;;;23.90;11.05;;;;;;;11.90;100.00;101207.54;1722735;82;20950;-71
2021/11/14 10:46:41;;;;;;;21.75;10.80;;;;;;;11.92;100.00;101203.69;1695385;83;21069;-70
2021/11/14 10:49:10;;;;;;;21.50;10.05;;;;;;;12.01;100.00;101199.22;1709772;83;21031;-71
2021/11/14 10:51:38;;;;;;;21.60;10.35;;;;;;;11.95;100.00;101201.17;1658219;85;21051;-70
2021/11/14 10:54:07;;;;;;;21.80;10.72;;;;;;;12.00;100.00;101190.72;1708236;83;20970;-69
2021/11/14 10:56:34;;;;;;;25.70;11.30;;;;;;;12.06;100.00;101192.00;1595826;89;21115;-70
2021/11/14 10:59:02;;;;;;;26.35;10.50;;;;;;;12.10;100.00;101188.81;1599677;89;21048;-69
2021/11/14 11:01:30;;;;;;;22.05;9.80;;;;;;;12.18;100.00;101184.48;1575499;90;21074;-70
2021/11/14 11:03:57;;;;;;;21.35;10.30;;;;;;;12.21;100.00;101183.66;1555850;90;21097;-70
2021/11/14 11:06:27;;;;;;;20.55;9.65;;;;;;;12.27;100.00;101182.19;1598209;89;21118;-70
2021/11/14 11:09:00;;;;;;;23.70;9.85;;;;;;;12.34;100.00;101179.20;1528964;93;21139;-70
2021/11/14 11:11:28;;;;;;;23.25;10.08;;;;;;;12.42;100.00;101178.45;1465469;96;21670;-69
2021/11/14 11:13:56;;;;;;;26.97;10.55;;;;;;;12.35;100.00;101181.77;1455186;96;21087;-70
2021/11/14 11:16:29;;;;;;;19.80;9.63;;;;;;;12.38;100.00;101172.97;1437995;99;21208;-70